Time;durP1;ratioP1;P1;durP2;ratioP2;P2;SDS_P1;SDS_P2;PMS_P1;PMS_P2;Temp;Humidity;BMP_temperature;BMP_pressure;BME280_temperature;BME280_humidity;BME280_pressure;Samples;Min_cycle;Max_cycle;Signal;HPM_P1;HPM_P2
2022/09/02 00:00:49;;;;;;;1.02;0.95;;;13.70;99.90;;;;;;5032875;28;20053;-82
2022/09/02 00:03:15;;;;;;;0.95;0.77;;;13.70;99.90;;;;;;5033174;28;20045;-82
2022/09/02 00:05:41;;;;;;;1.70;0.98;;;13.70;99.90;;;;;;5017571;28;20090;-82
2022/09/02 00:08:08;;;;;;;0.95;0.88;;;13.70;99.90;;;;;;5034118;28;20061;-82
2022/09/02 00:10:36;;;;;;;1.02;0.82;;;13.70;99.90;;;;;;5017017;28;20049;-82
2022/09/02 00:13:03;;;;;;;2.05;0.90;;;13.70;99.90;;;;;;5034115;28;20490;-82
2022/09/02 00:38:13;;;;;;;2.65;1.17;;;13.60;99.90;;;;;;5032299;28;20546;-82
2022/09/02 00:40:43;;;;;;;1.38;1.00;;;13.60;99.90;;;;;;4976084;28;20050;-82
2022/09/02 00:43:09;;;;;;;1.45;1.02;;;13.50;99.90;;;;;;4996128;28;20050;-82
2022/09/02 00:45:36;;;;;;;1.50;1.08;;;13.50;99.90;;;;;;4996236;28;20184;-82
2022/09/02 00:48:04;;;;;;;2.00;1.00;;;13.50;99.90;;;;;;4978328;28;20479;-82
2022/09/02 00:50:33;;;;;;;1.90;1.10;;;13.40;99.90;;;;;;4980181;28;20049;-82
2022/09/02 00:53:04;;;;;;;2.28;1.40;;;13.40;99.90;;;;;;4995855;28;20069;-82
2022/09/02 00:55:35;;;;;;;2.45;1.50;;;13.40;99.90;;;;;;4995210;28;20049;-82
2022/09/02 00:58:09;;;;;;;2.22;1.60;;;13.40;99.90;;;;;;4995421;28;20037;-82
2022/09/02 01:00:43;;;;;;;1.25;1.05;;;13.30;99.90;;;;;;4995835;28;20531;-82
2022/09/02 01:03:12;;;;;;;2.10;1.05;;;13.30;99.90;;;;;;4991943;28;20531;-82
2022/09/02 01:05:44;;;;;;;1.58;1.10;;;13.20;99.90;;;;;;4995599;28;20045;-82
2022/09/02 01:08:18;;;;;;;2.17;1.27;;;13.20;99.90;;;;;;4995436;28;20069;-82
2022/09/02 01:10:45;;;;;;;1.25;1.02;;;13.10;99.90;;;;;;4997073;28;20053;-82
2022/09/02 01:13:14;;;;;;;1.55;0.95;;;13.00;99.90;;;;;;5016437;28;20053;-82
2022/09/02 01:15:44;;;;;;;1.40;1.00;;;13.00;99.90;;;;;;5016085;28;20065;-85
2022/09/02 01:18:16;;;;;;;0.70;0.70;;;13.00;99.90;;;;;;5028395;28;20116;-86
2022/09/02 01:20:42;;;;;;;1.42;0.80;;;12.90;99.90;;;;;;5016262;28;20053;-85
2022/09/02 01:23:08;;;;;;;1.48;1.02;;;12.90;99.90;;;;;;5031599;28;20071;-86
2022/09/02 01:25:34;;;;;;;2.22;1.02;;;12.80;99.90;;;;;;4999676;28;20179;-86
2022/09/02 01:28:06;;;;;;;2.97;1.50;;;12.80;99.90;;;;;;5015833;28;20049;-86
2022/09/02 01:30:34;;;;;;;1.45;1.10;;;12.90;99.90;;;;;;5032817;28;20542;-86
2022/09/02 01:33:00;;;;;;;2.83;1.30;;;12.80;99.90;;;;;;5015711;28;20052;-85
2022/09/02 01:35:26;;;;;;;1.65;1.20;;;12.80;99.90;;;;;;4998580;28;20038;-85
2022/09/02 01:37:55;;;;;;;2.03;0.93;;;12.70;99.90;;;;;;5030279;28;20087;-85
2022/09/02 01:40:21;;;;;;;2.03;1.25;;;12.70;99.90;;;;;;5027480;28;20091;-85
2022/09/02 01:42:52;;;;;;;1.40;1.15;;;12.70;99.90;;;;;;5031547;28;20037;-85
2022/09/02 01:45:18;;;;;;;1.55;1.10;;;12.60;99.90;;;;;;5014974;28;20042;-85
2022/09/02 01:47:44;;;;;;;2.03;1.10;;;12.60;99.90;;;;;;5030382;28;20037;-85
2022/09/02 01:50:09;;;;;;;1.25;1.08;;;12.60;99.90;;;;;;5015714;28;20052;-86
2022/09/02 01:52:35;;;;;;;1.75;1.42;;;12.60;99.90;;;;;;5015406;28;20061;-85
2022/09/02 01:55:01;;;;;;;1.55;1.23;;;12.40;99.90;;;;;;5032260;28;20029;-85
2022/09/02 01:57:27;;;;;;;2.22;1.25;;;12.50;99.90;;;;;;5015468;28;20128;-86
2022/09/02 01:59:54;;;;;;;1.83;1.08;;;12.50;99.90;;;;;;5031902;28;20440;-85
2022/09/02 02:02:20;;;;;;;2.20;1.00;;;12.50;99.90;;;;;;5032152;28;20045;-85
2022/09/02 02:04:47;;;;;;;0.85;0.63;;;12.50;99.90;;;;;;5032238;28;20041;-85
2022/09/02 02:07:15;;;;;;;1.83;1.00;;;12.40;99.90;;;;;;5015622;28;20072;-85
2022/09/02 02:09:42;;;;;;;1.45;1.17;;;12.30;99.90;;;;;;5030643;28;20049;-86
2022/09/02 02:12:09;;;;;;;1.05;0.88;;;12.10;99.90;;;;;;5031603;28;20103;-86
2022/09/02 02:14:35;;;;;;;2.15;1.20;;;12.30;99.90;;;;;;4998887;28;20045;-85
2022/09/02 02:17:01;;;;;;;1.90;1.10;;;12.30;99.90;;;;;;4998778;28;20037;-85
2022/09/02 02:19:27;;;;;;;1.80;0.98;;;12.30;99.90;;;;;;5031465;28;20100;-85
2022/09/02 02:21:55;;;;;;;1.10;0.98;;;12.20;99.90;;;;;;5031707;28;20042;-82
2022/09/02 02:24:23;;;;;;;1.08;0.90;;;12.90;99.90;;;;;;5031653;28;20391;-82
2022/09/02 02:26:49;;;;;;;2.15;1.00;;;12.20;99.90;;;;;;5015609;28;20480;-82
2022/09/02 02:29:15;;;;;;;1.80;1.00;;;12.20;99.90;;;;;;5031650;28;20049;-82
2022/09/02 02:31:41;;;;;;;2.33;1.15;;;12.10;99.90;;;;;;5015384;28;20462;-82
2022/09/02 02:34:09;;;;;;;1.13;0.82;;;12.10;99.90;;;;;;5001250;28;20053;-82
2022/09/02 02:36:35;;;;;;;1.25;1.00;;;12.10;99.90;;;;;;5018211;28;20042;-82
2022/09/02 02:39:02;;;;;;;1.42;1.08;;;12.10;99.90;;;;;;5035140;28;20029;-85
2022/09/02 02:41:32;;;;;;;1.27;1.02;;;12.10;99.90;;;;;;5018419;28;20048;-85
2022/09/02 02:43:58;;;;;;;2.92;1.75;;;12.20;99.90;;;;;;5031673;28;20103;-85
2022/09/02 02:46:24;;;;;;;0.80;0.80;;;12.30;99.90;;;;;;5035349;28;20046;-85
2022/09/02 02:48:49;;;;;;;1.25;1.00;;;12.30;99.90;;;;;;5018640;28;20044;-85
2022/09/02 02:51:15;;;;;;;2.00;1.23;;;12.30;99.90;;;;;;5035075;28;20046;-85
2022/09/02 02:53:41;;;;;;;1.70;1.10;;;12.40;99.90;;;;;;5035183;28;20041;-83
2022/09/02 02:56:08;;;;;;;1.75;0.85;;;12.40;99.90;;;;;;5002813;28;20037;-82
2022/09/02 02:58:34;;;;;;;3.15;1.10;;;12.40;99.90;;;;;;5035204;28;20049;-82
2022/09/02 03:01:00;;;;;;;1.23;1.00;;;12.40;99.90;;;;;;5034968;28;20037;-82
2022/09/02 03:03:27;;;;;;;1.42;1.00;;;12.40;99.90;;;;;;5018708;28;20710;-82
2022/09/02 03:05:53;;;;;;;2.58;1.40;;;12.40;99.90;;;;;;5035160;28;20049;-82
2022/09/02 03:08:20;;;;;;;2.25;1.20;;;12.50;99.90;;;;;;5018687;28;20066;-82
2022/09/02 03:10:50;;;;;;;2.00;1.00;;;12.50;99.90;;;;;;5018675;28;20037;-85
2022/09/02 03:13:16;;;;;;;2.22;1.27;;;12.50;99.90;;;;;;5018673;28;20387;-86
2022/09/02 03:15:45;;;;;;;2.88;1.00;;;12.50;99.90;;;;;;5002088;28;20608;-85
2022/09/02 03:18:11;;;;;;;1.92;1.15;;;12.50;99.90;;;;;;5035265;28;20390;-85
2022/09/02 03:20:38;;;;;;;2.88;1.05;;;12.50;99.90;;;;;;5018369;28;20049;-85
2022/09/02 03:23:04;;;;;;;3.20;1.38;;;12.50;99.90;;;;;;5018152;28;20049;-85
2022/09/02 03:25:31;;;;;;;1.13;1.00;;;12.50;99.90;;;;;;5018515;28;20068;-86
2022/09/02 03:27:57;;;;;;;1.63;1.50;;;12.50;99.90;;;;;;5018685;28;20045;-82
2022/09/02 03:30:25;;;;;;;1.52;1.10;;;13.00;99.90;;;;;;5034737;28;20053;-82
2022/09/02 03:32:55;;;;;;;1.17;1.00;;;12.40;99.90;;;;;;5016487;28;20128;-82
2022/09/02 03:35:22;;;;;;;1.90;1.15;;;12.40;99.90;;;;;;5033324;28;20041;-82
2022/09/02 03:37:49;;;;;;;1.55;0.90;;;12.40;99.90;;;;;;5001369;28;20041;-82
2022/09/02 03:40:22;;;;;;;2.08;1.10;;;12.40;99.90;;;;;;5034109;28;20041;-82
2022/09/02 03:42:48;;;;;;;2.20;1.33;;;12.30;99.90;;;;;;5027538;28;20488;-82
2022/09/02 03:45:15;;;;;;;1.63;1.00;;;12.30;99.90;;;;;;5017542;28;20039;-85
2022/09/02 03:47:49;;;;;;;1.70;1.15;;;12.20;99.90;;;;;;5001965;28;20403;-85
2022/09/02 03:50:17;;;;;;;2.20;1.20;;;12.10;99.90;;;;;;5033877;28;20046;-85
2022/09/02 03:52:42;;;;;;;2.45;1.50;;;12.10;99.90;;;;;;5034184;28;20068;-85
2022/09/02 03:55:09;;;;;;;2.15;1.17;;;12.10;99.90;;;;;;5001681;28;20037;-84
2022/09/02 03:57:35;;;;;;;1.70;1.20;;;12.10;99.90;;;;;;5017593;28;20047;-85
2022/09/02 04:00:04;;;;;;;2.53;1.30;;;12.00;99.90;;;;;;5034123;28;20537;-85
2022/09/02 04:02:30;;;;;;;2.58;1.33;;;12.00;99.90;;;;;;5050557;28;20053;-85
2022/09/02 04:04:56;;;;;;;2.10;1.25;;;12.00;99.90;;;;;;5017624;28;20045;-85
2022/09/02 04:07:22;;;;;;;2.47;1.38;;;11.80;99.90;;;;;;5026228;22;20049;-79
2022/09/02 04:09:47;;;;;;;2.08;1.30;;;11.80;99.90;;;;;;4981029;28;20180;-78
2022/09/02 04:12:13;;;;;;;1.75;1.30;;;11.80;99.90;;;;;;5026419;28;20121;-78
2022/09/02 04:14:40;;;;;;;1.55;1.17;;;11.80;99.90;;;;;;4980207;28;20034;-78
2022/09/02 04:17:06;;;;;;;1.35;1.05;;;11.70;99.90;;;;;;5013568;28;20399;-78
2022/09/02 04:19:32;;;;;;;3.10;1.42;;;11.60;99.90;;;;;;4981512;28;20045;-78
2022/09/02 04:21:58;;;;;;;3.35;1.20;;;11.60;99.90;;;;;;5013917;28;20073;-78
2022/09/02 04:24:23;;;;;;;1.13;0.90;;;11.60;99.90;;;;;;5012833;28;20045;-78
2022/09/02 04:26:49;;;;;;;1.95;1.13;;;11.70;99.90;;;;;;5007240;28;20076;-78
2022/09/02 04:29:15;;;;;;;1.88;1.10;;;11.60;99.90;;;;;;5013544;28;20510;-78
2022/09/02 04:31:41;;;;;;;2.22;1.15;;;11.50;99.90;;;;;;5012676;28;20038;-78
2022/09/02 04:34:07;;;;;;;1.30;1.15;;;11.50;99.90;;;;;;5013421;28;20038;-76
2022/09/02 04:36:32;;;;;;;5.07;1.50;;;11.40;99.90;;;;;;5011198;28;20044;-76
2022/09/02 04:38:58;;;;;;;1.42;1.10;;;11.30;99.90;;;;;;5013348;28;20037;-76
2022/09/02 04:41:29;;;;;;;1.23;1.02;;;11.40;99.90;;;;;;5013440;28;20120;-76
2022/09/02 04:43:57;;;;;;;1.65;1.02;;;11.40;99.90;;;;;;4995501;28;20042;-76
2022/09/02 04:46:23;;;;;;;4.28;1.38;;;11.50;99.90;;;;;;5005053;28;20050;-76
2022/09/02 04:48:50;;;;;;;7.45;1.50;;;11.30;99.90;;;;;;4993543;28;20077;-76
2022/09/02 04:51:19;;;;;;;1.60;1.15;;;11.30;99.90;;;;;;4996074;28;20124;-78
2022/09/02 04:53:46;;;;;;;1.98;1.42;;;11.30;99.90;;;;;;5013423;28;20074;-78
2022/09/02 04:56:16;;;;;;;2.47;1.35;;;11.30;99.90;;;;;;5012166;28;20121;-78
2022/09/02 04:58:45;;;;;;;1.50;1.10;;;11.30;99.90;;;;;;4996049;28;20034;-78
2022/09/02 05:01:14;;;;;;;2.20;1.35;;;11.30;99.90;;;;;;5012870;28;20128;-78
2022/09/02 05:03:41;;;;;;;4.22;1.15;;;11.30;99.90;;;;;;5012195;28;20132;-78
2022/09/02 05:06:13;;;;;;;3.35;1.33;;;11.40;99.90;;;;;;5007343;28;20488;-78
2022/09/02 05:08:41;;;;;;;2.25;1.20;;;11.30;99.90;;;;;;5012226;28;20092;-78
2022/09/02 05:11:12;;;;;;;4.03;1.50;;;11.30;99.90;;;;;;5012335;28;20058;-78
2022/09/02 05:13:39;;;;;;;2.63;1.85;;;11.30;99.90;;;;;;5011958;28;20092;-78
2022/09/02 05:16:06;;;;;;;2.55;1.50;;;11.40;99.90;;;;;;5013326;28;20542;-78
2022/09/02 05:18:32;;;;;;;3.33;1.40;;;11.80;99.90;;;;;;4995977;28;20056;-78
2022/09/02 05:20:58;;;;;;;1.55;1.25;;;11.50;99.90;;;;;;5012659;28;20488;-78
2022/09/02 05:23:24;;;;;;;3.50;1.52;;;11.80;99.90;;;;;;5011604;28;20046;-78
2022/09/02 05:25:50;;;;;;;4.00;1.40;;;11.60;99.90;;;;;;5012207;28;20046;-76
2022/09/02 05:28:16;;;;;;;1.70;1.27;;;11.60;99.90;;;;;;4995380;28;20400;-76
2022/09/02 05:30:42;;;;;;;3.65;1.60;;;11.70;99.90;;;;;;5008489;28;20038;-76
2022/09/02 05:33:09;;;;;;;2.03;1.30;;;11.70;99.90;;;;;;4974767;28;20435;-76
2022/09/02 05:35:42;;;;;;;5.97;1.50;;;11.70;99.90;;;;;;5010794;28;20034;-76
2022/09/02 05:38:08;;;;;;;1.85;1.65;;;11.80;99.90;;;;;;5012160;28;20048;-76
2022/09/02 05:40:37;;;;;;;2.38;1.15;;;12.00;99.90;;;;;;5010366;28;20035;-78
2022/09/02 05:43:04;;;;;;;3.55;1.50;;;12.00;99.90;;;;;;5011081;28;20053;-78
2022/09/02 05:45:29;;;;;;;5.60;1.88;;;12.10;99.90;;;;;;4995903;28;20048;-78
2022/09/02 05:47:55;;;;;;;6.50;1.30;;;12.10;99.90;;;;;;4995828;28;20527;-78
2022/09/02 05:50:21;;;;;;;2.80;1.50;;;12.20;99.90;;;;;;4994391;28;20560;-78
2022/09/02 05:52:50;;;;;;;2.30;1.48;;;12.30;99.90;;;;;;4995358;28;20488;-78
2022/09/02 05:55:16;;;;;;;1.95;1.40;;;12.40;99.90;;;;;;5009855;28;20038;-78
2022/09/02 05:57:43;;;;;;;3.25;1.90;;;12.50;99.90;;;;;;5009408;28;20065;-78
2022/09/02 06:00:09;;;;;;;2.28;1.50;;;12.50;99.90;;;;;;4994252;28;20038;-80
2022/09/02 06:02:35;;;;;;;2.97;1.55;;;12.60;99.90;;;;;;5008446;28;20124;-78
2022/09/02 06:05:01;;;;;;;2.45;1.63;;;12.70;99.90;;;;;;5011252;28;20124;-78
2022/09/02 06:07:27;;;;;;;3.03;1.60;;;12.80;99.90;;;;;;5012386;28;20473;-79
2022/09/02 06:09:53;;;;;;;3.15;1.55;;;12.90;99.90;;;;;;5009742;28;20042;-79
2022/09/02 06:12:19;;;;;;;1.55;1.10;;;13.00;99.90;;;;;;4995850;28;20042;-78
2022/09/02 06:14:46;;;;;;;2.58;1.40;;;13.20;99.90;;;;;;5011276;28;20041;-76
2022/09/02 06:17:13;;;;;;;1.90;1.55;;;13.30;99.90;;;;;;5012012;28;20042;-76
2022/09/02 06:19:39;;;;;;;2.67;1.58;;;13.60;99.90;;;;;;5011831;28;20128;-76
2022/09/02 06:22:05;;;;;;;2.92;1.65;;;14.30;99.90;;;;;;5010435;28;20500;-76
2022/09/02 06:24:31;;;;;;;2.53;1.52;;;14.70;99.90;;;;;;4995295;28;20045;-76
2022/09/02 06:26:58;;;;;;;2.63;1.52;;;14.80;99.90;;;;;;4998121;28;20041;-76
2022/09/02 06:29:25;;;;;;;2.70;1.88;;;15.80;99.90;;;;;;5011888;28;20042;-76
2022/09/02 06:31:53;;;;;;;1.20;0.98;;;17.10;99.90;;;;;;4994274;28;20053;-78
2022/09/02 06:34:21;;;;;;;2.65;1.38;;;18.70;99.90;;;;;;5010277;28;20081;-79
2022/09/02 06:36:49;;;;;;;2.47;1.40;;;19.80;97.70;;;;;;5010576;28;20049;-78
2022/09/02 06:39:16;;;;;;;2.42;1.45;;;20.60;95.40;;;;;;4993583;28;20369;-79
2022/09/02 06:41:43;;;;;;;2.25;1.20;;;21.40;94.40;;;;;;5005721;28;20499;-79
2022/09/02 06:44:10;;;;;;;4.38;1.20;;;22.40;93.10;;;;;;5009450;28;20044;-79
2022/09/02 06:46:40;;;;;;;3.20;1.15;;;22.30;91.80;;;;;;5011273;28;20456;-79
2022/09/02 06:49:07;;;;;;;2.35;1.20;;;22.60;91.10;;;;;;5006438;28;20048;-79
2022/09/02 06:51:40;;;;;;;1.73;1.10;;;23.30;91.10;;;;;;5004056;28;20042;-79
2022/09/02 06:54:09;;;;;;;2.70;1.10;;;24.20;88.70;;;;;;5009019;28;20058;-79
2022/09/02 06:56:35;;;;;;;1.88;1.20;;;25.00;87.10;;;;;;4990513;28;20040;-79
2022/09/02 06:59:02;;;;;;;1.77;1.20;;;25.40;85.60;;;;;;5009732;28;20476;-79
2022/09/02 07:01:30;;;;;;;0.98;0.77;;;25.60;86.40;;;;;;5009701;28;20034;-79
2022/09/02 07:06:47;;;;;;;3.00;0.90;;;25.80;84.00;;;;;;5010567;28;20050;-79
2022/09/02 07:09:16;;;;;;;1.92;1.08;;;25.90;82.00;;;;;;5008536;28;20057;-80
2022/09/02 07:11:46;;;;;;;1.42;0.95;;;26.40;80.50;;;;;;5011361;28;20069;-79
2022/09/02 07:14:17;;;;;;;1.42;0.90;;;26.40;80.10;;;;;;5010748;28;20120;-80
2022/09/02 07:16:50;;;;;;;1.00;0.80;;;26.20;79.50;;;;;;4986830;28;20038;-80
2022/09/02 07:19:18;;;;;;;1.67;1.10;;;27.00;80.00;;;;;;5010203;28;20118;-80
2022/09/02 07:21:44;;;;;;;1.90;1.27;;;26.60;80.40;;;;;;5009640;28;20049;-80
2022/09/02 07:24:12;;;;;;;0.98;0.90;;;26.70;79.80;;;;;;5013074;28;20049;-79
2022/09/02 07:26:39;;;;;;;2.53;0.80;;;26.80;77.80;;;;;;5014105;28;20060;-79
2022/09/02 07:29:07;;;;;;;1.67;1.08;;;27.30;79.30;;;;;;4998046;28;20049;-79
2022/09/02 07:31:37;;;;;;;1.75;0.98;;;27.40;77.20;;;;;;4981680;28;20053;-80
2022/09/02 07:34:04;;;;;;;2.28;1.20;;;27.60;75.60;;;;;;5014451;28;20081;-80
2022/09/02 07:36:30;;;;;;;4.18;1.10;;;27.50;74.80;;;;;;4996744;28;20112;-80
2022/09/02 07:38:56;;;;;;;1.52;0.90;;;27.50;75.50;;;;;;5012080;28;20527;-79
2022/09/02 07:41:23;;;;;;;0.80;0.73;;;28.20;76.50;;;;;;5005812;28;20038;-79
2022/09/02 07:43:49;;;;;;;1.35;0.95;;;28.50;74.80;;;;;;4981413;28;20047;-79
2022/09/02 07:46:15;;;;;;;1.70;1.13;;;28.60;74.40;;;;;;5011093;28;20092;-79
2022/09/02 07:48:41;;;;;;;2.40;1.05;;;28.40;74.20;;;;;;4986029;28;20481;-79
2022/09/02 07:51:07;;;;;;;1.65;0.90;;;29.00;74.40;;;;;;5004844;28;20120;-80
2022/09/02 07:53:35;;;;;;;3.30;1.00;;;29.30;73.40;;;;;;5007818;28;20091;-80
2022/09/02 07:56:03;;;;;;;1.73;0.95;;;29.80;72.20;;;;;;4996848;28;20042;-80
2022/09/02 07:58:32;;;;;;;1.38;0.93;;;29.50;72.60;;;;;;5013120;28;20048;-80
2022/09/02 08:00:58;;;;;;;0.65;0.65;;;29.10;73.30;;;;;;4997298;28;20038;-80
2022/09/02 08:03:25;;;;;;;1.50;0.70;;;29.10;73.00;;;;;;4971617;28;20440;-80
2022/09/02 08:05:51;;;;;;;0.98;0.82;;;29.40;71.60;;;;;;5011197;28;20041;-80
2022/09/02 08:08:21;;;;;;;2.13;0.95;;;29.10;70.80;;;;;;5014327;28;20065;-80
2022/09/02 08:10:49;;;;;;;1.08;0.80;;;29.40;70.80;;;;;;5014095;28;20068;-80
2022/09/02 08:13:16;;;;;;;2.97;0.80;;;29.60;72.10;;;;;;5034255;28;20046;-80
2022/09/02 08:15:42;;;;;;;1.73;0.60;;;29.50;70.60;;;;;;5033543;28;20383;-80
2022/09/02 08:18:08;;;;;;;1.52;0.90;;;30.30;71.30;;;;;;5021478;28;20100;-80
2022/09/02 08:20:34;;;;;;;1.52;0.73;;;30.10;71.70;;;;;;4997623;28;20045;-80
2022/09/02 08:23:01;;;;;;;1.35;0.82;;;30.10;70.70;;;;;;4998401;28;20034;-80
2022/09/02 08:25:27;;;;;;;2.25;0.90;;;30.60;69.50;;;;;;4997706;28;20054;-80
2022/09/02 08:27:53;;;;;;;1.50;0.95;;;30.60;70.00;;;;;;4974020;28;20380;-78
2022/09/02 08:30:19;;;;;;;0.90;0.75;;;30.70;69.30;;;;;;5014203;28;20037;-77
2022/09/02 08:32:45;;;;;;;1.42;0.90;;;31.40;68.90;;;;;;5013608;28;20519;-77
2022/09/02 08:35:11;;;;;;;1.27;0.80;;;31.40;67.30;;;;;;5013274;28;20074;-78
2022/09/02 08:37:37;;;;;;;3.45;1.23;;;31.50;69.70;;;;;;5014052;28;20100;-78
2022/09/02 08:40:06;;;;;;;2.17;0.55;;;30.40;66.90;;;;;;5013634;28;20030;-78
2022/09/02 08:42:34;;;;;;;0.73;0.60;;;30.60;67.80;;;;;;4997226;28;20045;-78
2022/09/02 08:45:18;;;;;;;2.17;0.82;;;30.90;67.20;;;;;;5012368;28;20045;-78
2022/09/02 08:47:53;;;;;;;1.23;0.80;;;30.80;66.90;;;;;;4992292;28;20065;-78
2022/09/02 08:50:19;;;;;;;2.87;1.20;;;31.00;68.10;;;;;;5001509;28;20045;-78
2022/09/02 08:52:49;;;;;;;1.55;0.90;;;31.30;65.10;;;;;;5013228;28;20136;-78
2022/09/02 08:55:24;;;;;;;1.50;0.80;;;31.20;66.10;;;;;;5014006;28;20044;-78
2022/09/02 08:57:50;;;;;;;2.17;1.02;;;31.20;66.40;;;;;;5012088;28;20120;-78
2022/09/02 09:00:16;;;;;;;1.33;0.80;;;31.10;67.20;;;;;;4996710;28;20080;-79
2022/09/02 09:03:14;;;;;;;1.77;0.90;;;31.10;65.60;;;;;;5012777;28;20458;-80
2022/09/02 09:05:55;;;;;;;4.13;1.10;;;30.30;66.80;;;;;;4979533;28;20055;-80
2022/09/02 09:08:51;;;;;;;3.13;1.42;;;30.40;67.20;;;;;;5020390;28;20108;-80
2022/09/02 09:11:31;;;;;;;2.58;1.00;;;30.40;66.70;;;;;;5009699;28;20100;-80
2022/09/02 09:14:06;;;;;;;1.88;0.80;;;30.50;66.50;;;;;;5012051;28;20491;-80
2022/09/02 09:16:59;;;;;;;0.70;0.52;;;30.50;67.70;;;;;;5012984;28;20041;-80
2022/09/02 09:19:42;;;;;;;1.48;0.82;;;30.30;66.80;;;;;;4994932;28;20423;-80
2022/09/02 09:22:13;;;;;;;0.75;0.68;;;30.20;66.90;;;;;;5013332;28;20060;-80
2022/09/02 09:24:41;;;;;;;3.10;1.10;;;30.70;66.40;;;;;;4994947;28;20120;-80
2022/09/02 09:27:19;;;;;;;1.55;0.85;;;30.70;65.50;;;;;;5009171;28;20056;-80
2022/09/02 09:29:45;;;;;;;2.58;0.70;;;31.40;65.40;;;;;;5013159;28;20507;-81
2022/09/02 09:32:19;;;;;;;1.67;0.73;;;30.80;64.10;;;;;;4990203;28;20046;-80
2022/09/02 09:34:50;;;;;;;0.82;0.63;;;30.50;65.70;;;;;;5008686;28;20046;-79
2022/09/02 09:37:39;;;;;;;0.63;0.60;;;31.00;66.10;;;;;;5012486;28;20042;-79
2022/09/02 09:40:25;;;;;;;2.50;0.80;;;31.60;64.10;;;;;;4996501;28;20052;-78
2022/09/02 09:43:01;;;;;;;0.52;0.52;;;31.70;63.80;;;;;;5012533;28;20041;-79
2022/09/02 09:45:34;;;;;;;1.27;0.75;;;31.70;64.40;;;;;;5012420;28;20046;-78
2022/09/02 09:48:22;;;;;;;2.75;0.73;;;31.60;63.50;;;;;;5012672;28;20488;-79
2022/09/02 09:51:09;;;;;;;4.35;0.80;;;31.50;65.10;;;;;;5013023;28;20037;-79
2022/09/02 09:53:36;;;;;;;1.85;0.60;;;32.10;64.40;;;;;;5011629;28;20078;-79
2022/09/02 09:56:22;;;;;;;1.95;1.33;;;32.30;63.90;;;;;;4996044;28;20072;-78
2022/09/02 09:58:49;;;;;;;0.77;0.70;;;32.00;62.40;;;;;;4995255;28;20092;-78
2022/09/02 10:01:29;;;;;;;3.92;1.67;;;31.30;64.40;;;;;;4996073;28;20046;-78
2022/09/02 10:04:10;;;;;;;2.03;0.90;;;30.90;63.50;;;;;;5012255;28;20057;-78
2022/09/02 10:09:18;;;;;;;2.42;0.82;;;32.20;63.70;;;;;;5022578;28;20041;-79
2022/09/02 10:11:56;;;;;;;2.35;0.77;;;31.60;61.30;;;;;;5009347;28;20054;-79
2022/09/02 10:14:23;;;;;;;1.38;1.00;;;31.90;62.60;;;;;;5011595;28;20435;-79
2022/09/02 10:17:01;;;;;;;1.98;0.90;;;31.70;63.20;;;;;;4979128;28;20504;-79
2022/09/02 10:20:02;;;;;;;2.35;0.70;;;31.40;62.40;;;;;;5003619;28;20053;-79
2022/09/02 10:22:52;;;;;;;0.60;0.60;;;31.50;61.90;;;;;;4919596;29;20059;-79
2022/09/02 10:25:28;;;;;;;0.80;0.63;;;31.20;61.30;;;;;;4975125;28;20416;-78
2022/09/02 10:28:03;;;;;;;2.28;1.00;;;30.90;62.00;;;;;;4988940;28;20495;-78
2022/09/02 10:30:42;;;;;;;0.82;0.55;;;31.10;62.50;;;;;;4999742;28;20547;-79
2022/09/02 10:33:14;;;;;;;1.77;0.63;;;30.70;62.10;;;;;;5014123;28;20121;-78
2022/09/02 10:35:44;;;;;;;1.38;0.85;;;30.80;60.90;;;;;;4990244;28;20084;-78
2022/09/02 10:38:35;;;;;;;0.70;0.70;;;31.30;61.40;;;;;;4979275;28;20044;-78
2022/09/02 10:41:21;;;;;;;1.73;0.70;;;30.70;61.30;;;;;;4994181;28;20039;-80
2022/09/02 10:43:52;;;;;;;0.93;0.50;;;30.50;60.80;;;;;;5025833;28;20069;-81
2022/09/02 10:46:23;;;;;;;0.98;0.70;;;30.10;61.00;;;;;;4980305;28;20052;-81
2022/09/02 10:49:14;;;;;;;1.40;0.90;;;30.30;60.50;;;;;;4994986;28;20125;-81
2022/09/02 10:51:46;;;;;;;1.15;0.70;;;30.50;63.90;;;;;;4993417;28;20080;-81
2022/09/02 10:54:41;;;;;;;1.75;0.70;;;30.70;61.40;;;;;;5010166;28;20040;-81
2022/09/02 10:57:27;;;;;;;0.98;0.65;;;30.70;61.80;;;;;;4995819;28;20383;-81
2022/09/02 11:00:19;;;;;;;0.60;0.60;;;30.80;61.60;;;;;;5028878;28;20038;-81
2022/09/02 11:03:13;;;;;;;2.20;0.73;;;31.30;61.10;;;;;;4993056;28;20088;-81
2022/09/02 11:05:55;;;;;;;0.77;0.60;;;30.70;60.40;;;;;;4985088;28;20041;-81
2022/09/02 11:08:40;;;;;;;1.20;0.40;;;30.40;60.90;;;;;;4998422;28;20524;-80
2022/09/02 11:11:21;;;;;;;2.08;0.82;;;30.70;62.90;;;;;;5020943;28;20072;-81
2022/09/02 11:14:20;;;;;;;0.60;0.50;;;30.90;62.70;;;;;;4989026;28;20034;-81
2022/09/02 11:17:03;;;;;;;0.73;0.60;;;31.40;61.50;;;;;;4988108;28;20038;-80
2022/09/02 11:19:37;;;;;;;2.65;0.77;;;31.40;62.00;;;;;;5013981;28;20092;-80
2022/09/02 11:22:12;;;;;;;2.15;1.30;;;31.30;61.70;;;;;;4998668;28;20090;-80
2022/09/02 11:24:52;;;;;;;1.75;0.93;;;31.10;62.20;;;;;;4978316;28;20045;-80
2022/09/02 11:27:31;;;;;;;1.33;0.50;;;31.10;60.60;;;;;;4996860;28;20041;-80
2022/09/02 11:30:08;;;;;;;1.40;0.68;;;30.70;62.20;;;;;;4996444;28;20697;-80
2022/09/02 11:32:38;;;;;;;1.10;0.77;;;30.90;63.00;;;;;;4998416;28;20042;-78
2022/09/02 11:35:13;;;;;;;1.55;1.08;;;31.00;61.90;;;;;;4992432;28;20395;-79
2022/09/02 11:37:50;;;;;;;0.93;0.70;;;31.20;61.70;;;;;;4972724;28;20111;-78
2022/09/02 11:40:33;;;;;;;3.13;0.80;;;31.00;60.80;;;;;;4998590;28;20365;-78
2022/09/02 11:43:22;;;;;;;1.85;0.80;;;30.70;62.00;;;;;;4986164;28;20073;-78
2022/09/02 11:46:06;;;;;;;1.02;0.90;;;30.80;60.50;;;;;;5011732;28;20037;-78
2022/09/02 11:48:43;;;;;;;1.30;0.50;;;30.90;61.70;;;;;;4997321;28;20046;-81
2022/09/02 11:51:15;;;;;;;0.98;0.75;;;31.30;61.10;;;;;;4987050;28;20436;-81
2022/09/02 11:53:43;;;;;;;0.82;0.60;;;31.60;60.70;;;;;;5012235;28;20042;-81
2022/09/02 11:56:12;;;;;;;1.00;0.60;;;31.60;60.50;;;;;;4985704;28;20113;-81
2022/09/02 11:58:44;;;;;;;1.65;0.70;;;31.60;60.90;;;;;;5029416;28;20523;-81
2022/09/02 12:01:32;;;;;;;3.10;0.88;;;31.40;60.20;;;;;;4980797;28;20038;-81
2022/09/02 12:04:09;;;;;;;2.97;0.95;;;31.50;60.80;;;;;;4980156;28;20049;-81
2022/09/02 12:06:35;;;;;;;1.23;0.80;;;31.70;62.00;;;;;;5025184;28;20050;-81
2022/09/02 12:09:05;;;;;;;0.60;0.57;;;31.80;60.30;;;;;;4978892;28;20117;-80
2022/09/02 12:11:45;;;;;;;0.75;0.57;;;31.20;58.40;;;;;;4975897;28;20042;-81
2022/09/02 12:14:33;;;;;;;3.08;0.98;;;30.80;61.40;;;;;;5021249;28;20389;-80
2022/09/02 12:17:01;;;;;;;1.08;0.63;;;31.00;60.60;;;;;;5021251;28;20358;-81
2022/09/02 12:19:39;;;;;;;1.30;0.75;;;31.30;60.10;;;;;;4995821;28;20380;-81
2022/09/02 12:22:14;;;;;;;0.50;0.50;;;31.20;60.60;;;;;;4996179;28;20376;-80
2022/09/02 12:24:57;;;;;;;0.70;0.50;;;30.80;60.40;;;;;;5014646;28;20038;-81
2022/09/02 12:27:36;;;;;;;0.60;0.60;;;30.30;60.00;;;;;;4983823;28;20507;-80
2022/09/02 12:30:08;;;;;;;1.25;0.68;;;30.20;59.40;;;;;;4997902;28;20100;-80
2022/09/02 12:32:49;;;;;;;1.48;1.05;;;29.90;61.00;;;;;;4997015;28;20046;-80
2022/09/02 12:35:39;;;;;;;0.85;0.73;;;30.30;61.20;;;;;;4980081;28;20087;-81
2022/09/02 12:38:10;;;;;;;1.50;0.95;;;30.20;62.20;;;;;;5012895;28;20477;-81
2022/09/02 12:40:57;;;;;;;1.00;0.88;;;30.20;60.30;;;;;;4995016;28;20045;-80
2022/09/02 12:43:34;;;;;;;0.85;0.77;;;30.20;60.10;;;;;;4991814;28;20042;-81
2022/09/02 12:46:24;;;;;;;0.95;0.70;;;29.90;60.90;;;;;;5021734;28;20117;-81
2022/09/02 12:49:14;;;;;;;0.68;0.60;;;30.20;60.80;;;;;;4995523;28;20038;-80
2022/09/02 12:51:51;;;;;;;1.55;0.85;;;30.40;61.40;;;;;;4990545;28;20038;-80
2022/09/02 12:54:23;;;;;;;2.05;0.80;;;30.40;60.70;;;;;;4986579;28;20034;-78
2022/09/02 12:56:49;;;;;;;0.70;0.70;;;30.20;61.50;;;;;;4992965;28;20099;-79
2022/09/02 12:59:29;;;;;;;2.38;0.80;;;30.10;61.00;;;;;;4968473;28;20077;-79
2022/09/02 13:02:04;;;;;;;1.17;0.75;;;30.10;61.60;;;;;;4983479;28;20038;-79
2022/09/02 13:04:38;;;;;;;0.77;0.50;;;30.20;59.80;;;;;;4976097;28;20038;-79
2022/09/02 13:07:34;;;;;;;1.25;0.82;;;29.80;59.80;;;;;;4994277;28;20076;-80
2022/09/02 13:10:40;;;;;;;1.25;0.98;;;29.60;60.40;;;;;;5014322;28;20137;-78
2022/09/02 13:13:41;;;;;;;2.08;0.75;;;29.40;60.90;;;;;;5020877;28;20050;-80
2022/09/02 13:16:23;;;;;;;4.57;1.10;;;29.50;62.10;;;;;;4994596;28;20077;-80
2022/09/02 13:19:26;;;;;;;1.52;1.08;;;29.60;62.40;;;;;;4992617;28;20050;-81
2022/09/02 13:22:12;;;;;;;2.03;0.82;;;29.50;62.60;;;;;;4984785;28;20038;-80
2022/09/02 13:24:49;;;;;;;2.67;1.42;;;29.40;59.80;;;;;;5001185;28;20042;-80
2022/09/02 13:27:30;;;;;;;2.03;1.00;;;29.20;61.00;;;;;;5017907;28;20042;-79
2022/09/02 13:30:18;;;;;;;1.33;0.80;;;28.90;61.50;;;;;;4994009;28;20062;-79
2022/09/02 13:32:44;;;;;;;4.15;0.90;;;29.10;62.10;;;;;;4995272;28;20052;-80
2022/09/02 13:35:40;;;;;;;2.40;0.68;;;29.00;62.60;;;;;;4977928;28;20032;-80
2022/09/02 13:38:10;;;;;;;2.00;1.02;;;29.30;62.50;;;;;;4982145;28;20185;-79